Terminal Aerodrome Forecast
Issued by NWS Grand Forks, ND

Home | Current Version | Previous Version | Text Only | Print | Product List | Glossary Off
Versions: 1 2 3 4 5 6 7 8 9 10 11 12 13 14

000
FTUS43 KFGF 070300 AAB
TAFGFK
TAF AMD
KGFK 070352Z 0704/0724 VRB04KT P6SM BKN200
     FM070600 VRB05KT P6SM VCSH BKN120
     FM071500 29009KT P6SM VCSH BKN050
     FM071800 31012KT P6SM VCTS BKN060CB=

USA.gov is the U.S. government's official web portal to all federal, state and local government web resources and services.